createdAt,value
2022-08-10T00:01:41.329Z,25.76
2022-08-10T00:04:08.746Z,25.74
2022-08-10T00:06:38.367Z,25.65
2022-08-10T00:09:06.096Z,25.63
2022-08-10T00:11:33.729Z,25.65
2022-08-10T00:14:01.158Z,25.59
2022-08-10T00:16:28.792Z,25.29
2022-08-10T00:18:56.244Z,25.23
2022-08-10T00:21:23.750Z,25.09
2022-08-10T00:23:54.974Z,24.94
2022-08-10T00:26:22.363Z,24.99
2022-08-10T00:28:49.762Z,25.00
2022-08-10T00:31:17.220Z,25.14
2022-08-10T00:33:44.650Z,25.01
2022-08-10T00:36:12.187Z,25.10
2022-08-10T00:38:39.721Z,25.18
2022-08-10T00:41:07.146Z,25.15
2022-08-10T00:43:34.684Z,25.30
2022-08-10T00:46:02.119Z,25.41
2022-08-10T00:48:30.602Z,25.49
2022-08-10T00:51:02.002Z,25.59
2022-08-10T00:53:30.434Z,25.52
2022-08-10T00:56:35.836Z,25.29
2022-08-10T00:58:46.524Z,25.00
2022-08-10T01:02:08.857Z,25.01
2022-08-10T01:04:36.778Z,25.04
2022-08-10T01:07:21.856Z,24.84
2022-08-10T01:09:59.743Z,24.89
2022-08-10T01:12:50.472Z,25.06
2022-08-10T01:15:37.192Z,25.02
2022-08-10T01:18:17.314Z,24.95
2022-08-10T01:20:56.640Z,25.09
2022-08-10T01:23:51.193Z,25.22
2022-08-10T01:26:40.686Z,25.30
2022-08-10T01:29:08.472Z,25.36
2022-08-10T01:31:42.829Z,25.26
2022-08-10T01:34:18.253Z,25.28
2022-08-10T01:36:50.156Z,25.11
2022-08-10T01:39:25.574Z,24.90
2022-08-10T01:41:58.295Z,24.90
2022-08-10T01:44:32.355Z,24.69
2022-08-10T01:47:24.179Z,24.51
2022-08-10T01:49:56.761Z,24.61
2022-08-10T01:52:27.129Z,24.50
2022-08-10T01:54:56.722Z,24.43
2022-08-10T01:57:27.227Z,24.40
2022-08-10T02:00:01.990Z,24.43
2022-08-10T02:02:31.717Z,24.65
2022-08-10T02:05:02.378Z,24.83
2022-08-10T02:07:32.710Z,24.73
2022-08-10T02:10:20.626Z,24.82
2022-08-10T02:12:50.090Z,24.64
2022-08-10T02:15:20.510Z,24.37
2022-08-10T02:17:58.153Z,24.20
2022-08-10T02:20:35.809Z,24.37
2022-08-10T02:23:08.807Z,24.29
2022-08-10T02:25:41.327Z,24.38
2022-08-10T02:28:29.488Z,24.18
2022-08-10T02:31:12.008Z,24.14
2022-08-10T02:33:56.484Z,24.07
2022-08-10T02:36:29.630Z,24.27
2022-08-10T02:39:01.173Z,24.49
2022-08-10T02:42:18.086Z,24.57
2022-08-10T02:45:21.568Z,24.66
2022-08-10T02:47:52.892Z,24.59
2022-08-10T02:50:28.077Z,24.34
2022-08-10T02:53:05.268Z,24.26
2022-08-10T02:55:40.878Z,24.06
2022-08-10T02:58:17.756Z,24.22
2022-08-10T03:00:53.608Z,24.26
2022-08-10T03:03:26.812Z,24.08
2022-08-10T03:06:00.764Z,24.00
2022-08-10T03:08:34.119Z,24.10
2022-08-10T03:11:05.204Z,24.20
2022-08-10T03:13:35.663Z,24.45
2022-08-10T03:16:04.502Z,24.56
2022-08-10T03:18:33.451Z,24.59
2022-08-10T03:21:02.097Z,24.34
2022-08-10T03:23:30.305Z,24.51
2022-08-10T03:26:01.137Z,24.46
2022-08-10T03:28:32.235Z,24.45
2022-08-10T03:31:01.607Z,24.19
2022-08-10T03:33:33.308Z,24.29
2022-08-10T03:36:43.890Z,24.14
2022-08-10T03:38:51.937Z,24.10
2022-08-10T03:41:29.882Z,24.18
2022-08-10T03:44:06.261Z,24.24
2022-08-10T03:46:37.660Z,24.40
2022-08-10T03:49:06.241Z,24.49
2022-08-10T03:51:35.635Z,24.62
2022-08-10T03:54:07.343Z,24.61
2022-08-10T03:56:37.650Z,24.43
2022-08-10T03:59:07.643Z,24.34
2022-08-10T04:02:47.140Z,24.33
2022-08-10T04:04:25.070Z,24.41
2022-08-10T04:06:56.595Z,24.41
2022-08-10T04:09:53.453Z,24.34
2022-08-10T04:12:21.385Z,24.42
2022-08-10T04:14:51.327Z,24.44
2022-08-10T04:18:02.919Z,24.49
2022-08-10T04:20:39.839Z,24.51
2022-08-10T04:23:12.366Z,24.75
2022-08-10T04:25:41.109Z,24.87
2022-08-10T04:28:09.363Z,24.85
2022-08-10T04:30:37.996Z,24.87
2022-08-10T04:33:08.142Z,24.79
2022-08-10T04:35:37.249Z,24.74
2022-08-10T04:38:07.080Z,24.74
2022-08-10T04:40:34.567Z,24.77
2022-08-10T04:43:13.374Z,24.71
2022-08-10T04:45:49.012Z,24.76
2022-08-10T04:48:39.955Z,24.79
2022-08-10T04:51:15.271Z,24.87
2022-08-10T04:54:05.990Z,24.91
2022-08-10T04:56:38.960Z,24.98
2022-08-10T04:59:08.152Z,25.16
2022-08-10T05:02:21.449Z,25.31
2022-08-10T05:04:36.054Z,25.27
2022-08-10T05:07:08.154Z,25.39
2022-08-10T05:10:02.949Z,25.36
2022-08-10T05:12:25.019Z,25.56
2022-08-10T05:14:54.661Z,25.74
2022-08-10T05:17:23.743Z,25.63
2022-08-10T05:20:04.724Z,25.79
2022-08-10T05:22:42.876Z,25.95
2022-08-10T05:25:15.491Z,26.01
2022-08-10T05:27:44.341Z,25.91
2022-08-10T05:30:15.148Z,25.72
2022-08-10T05:32:57.164Z,25.98
2022-08-10T05:35:52.395Z,25.96
2022-08-10T05:38:18.534Z,25.97
2022-08-10T05:40:48.035Z,25.96
2022-08-10T05:43:20.697Z,26.09
2022-08-10T05:46:19.687Z,25.95
2022-08-10T05:48:58.145Z,26.07
2022-08-10T05:51:26.493Z,26.15
2022-08-10T05:54:03.163Z,26.14
2022-08-10T05:56:54.698Z,26.13
2022-08-10T06:00:32.441Z,26.09
2022-08-10T06:02:32.782Z,26.20
2022-08-10T06:05:19.469Z,26.34
2022-08-10T06:07:53.178Z,26.48
2022-08-10T06:10:31.551Z,26.62
2022-08-10T06:13:30.238Z,26.78
2022-08-10T06:16:05.841Z,26.92
2022-08-10T06:18:33.491Z,26.96
2022-08-10T06:21:02.595Z,27.16
2022-08-10T06:23:31.324Z,27.24
2022-08-10T06:26:11.375Z,27.39
2022-08-10T06:29:03.288Z,27.55
2022-08-10T06:31:47.956Z,27.71
2022-08-10T06:34:42.158Z,27.97
2022-08-10T06:37:12.895Z,28.03
2022-08-10T06:39:40.435Z,28.00
2022-08-10T06:42:19.671Z,27.97
2022-08-10T06:45:14.716Z,28.17
2022-08-10T06:47:49.241Z,28.39
2022-08-10T06:50:58.826Z,28.53
2022-08-10T06:53:52.230Z,28.63
2022-08-10T06:56:35.887Z,28.57
2022-08-10T06:59:21.837Z,28.61
2022-08-10T07:01:54.489Z,28.84
2022-08-10T07:04:32.754Z,29.02
2022-08-10T07:07:06.797Z,29.18
2022-08-10T07:09:40.266Z,29.25
2022-08-10T07:12:09.795Z,29.45
2022-08-10T07:14:41.013Z,29.66
2022-08-10T07:17:16.821Z,29.63
2022-08-10T07:19:49.864Z,29.81
2022-08-10T07:23:01.188Z,29.95
2022-08-10T07:25:13.253Z,30.05
2022-08-10T07:28:00.901Z,30.10
2022-08-10T07:30:38.221Z,30.27
2022-08-10T07:33:07.527Z,30.33
2022-08-10T07:35:42.196Z,30.34
2022-08-10T07:38:17.535Z,30.52
2022-08-10T07:40:46.951Z,30.63
2022-08-10T07:43:17.019Z,30.74
2022-08-10T07:45:46.776Z,30.82
2022-08-10T07:48:30.267Z,31.01
2022-08-10T07:51:02.076Z,31.11
2022-08-10T07:53:38.690Z,31.19
2022-08-10T07:56:21.168Z,31.16
2022-08-10T07:59:01.835Z,31.26
2022-08-10T08:01:33.637Z,31.31
2022-08-10T08:04:05.479Z,31.17
2022-08-10T08:06:42.314Z,31.30
2022-08-10T08:09:11.145Z,31.10
2022-08-10T08:11:43.255Z,31.29
2022-08-10T08:14:12.998Z,31.28
2022-08-10T08:16:44.313Z,31.31
2022-08-10T08:19:35.497Z,31.36
2022-08-10T08:24:15.036Z,31.33
2022-08-10T08:24:52.256Z,31.37
2022-08-10T08:27:21.802Z,31.30
2022-08-10T08:29:50.892Z,31.41
2022-08-10T08:32:22.732Z,31.62
2022-08-10T08:34:55.912Z,31.93
2022-08-10T08:38:32.172Z,32.17
2022-08-10T08:40:29.488Z,32.27
2022-08-10T08:43:22.410Z,32.35
2022-08-10T08:46:20.565Z,32.58
2022-08-10T08:49:06.460Z,32.74
2022-08-10T08:52:09.696Z,32.84
2022-08-10T08:55:52.412Z,33.17
2022-08-10T08:58:23.852Z,33.16
2022-08-10T09:01:40.418Z,33.20
2022-08-10T09:04:36.679Z,33.02
2022-08-10T09:07:59.922Z,33.11
2022-08-10T09:10:22.373Z,33.20
2022-08-10T09:13:05.242Z,33.36
2022-08-10T09:15:44.899Z,33.40
2022-08-10T09:18:47.629Z,33.25
2022-08-10T09:21:28.249Z,33.49
2022-08-10T09:24:21.969Z,33.62
2022-08-10T09:26:52.690Z,33.89
2022-08-10T09:29:27.954Z,34.12
2022-08-10T09:36:16.682Z,34.41
2022-08-10T09:36:19.621Z,34.60
2022-08-10T09:38:58.525Z,34.93
2022-08-10T09:41:41.798Z,34.91
2022-08-10T09:44:21.556Z,35.26
2022-08-10T09:47:05.964Z,35.40
2022-08-10T09:50:05.355Z,35.69
2022-08-10T09:53:10.296Z,35.93
2022-08-10T09:56:18.117Z,36.09
2022-08-10T09:58:47.075Z,36.00
2022-08-10T10:02:02.651Z,36.33
2022-08-10T10:04:50.248Z,36.54
2022-08-10T10:07:25.923Z,36.67
2022-08-10T10:10:33.251Z,36.90
2022-08-10T10:13:09.734Z,37.06
2022-08-10T10:16:18.269Z,37.04
2022-08-10T10:19:01.897Z,36.97
2022-08-10T10:21:54.153Z,37.19
2022-08-10T10:24:51.410Z,37.06
2022-08-10T10:27:30.777Z,37.19
2022-08-10T10:30:12.562Z,37.22
2022-08-10T10:33:00.754Z,37.13
2022-08-10T10:35:44.473Z,36.64
2022-08-10T10:38:13.911Z,36.31
2022-08-10T10:40:48.995Z,36.11
2022-08-10T10:43:42.608Z,36.37
2022-08-10T10:47:11.622Z,35.82
2022-08-10T10:49:50.889Z,35.65
2022-08-10T10:52:51.687Z,35.27
2022-08-10T10:56:13.549Z,35.21
2022-08-10T10:58:59.048Z,35.04
2022-08-10T11:01:39.193Z,35.22
2022-08-10T11:04:15.360Z,35.48
2022-08-10T11:07:10.562Z,35.62
2022-08-10T11:10:05.637Z,35.68
2022-08-10T11:12:50.914Z,35.68
2022-08-10T11:15:36.403Z,35.48
2022-08-10T11:18:35.743Z,35.24
2022-08-10T11:21:21.730Z,34.78
2022-08-10T11:24:48.979Z,34.76
2022-08-10T11:27:21.843Z,34.04
2022-08-10T11:30:06.689Z,34.52
2022-08-10T11:32:52.627Z,34.56
2022-08-10T11:35:34.194Z,34.39
2022-08-10T11:38:52.239Z,34.12
2022-08-10T11:42:09.401Z,33.83
2022-08-10T11:44:34.410Z,33.70
2022-08-10T11:47:04.666Z,33.56
2022-08-10T11:49:37.904Z,33.41
2022-08-10T11:52:33.602Z,33.24
2022-08-10T11:55:11.056Z,33.19
2022-08-10T11:57:54.273Z,33.22
2022-08-10T12:00:29.608Z,33.54
2022-08-10T12:03:04.271Z,33.86
2022-08-10T12:05:52.632Z,34.26
2022-08-10T12:10:04.950Z,34.49
2022-08-10T12:11:24.080Z,34.44
2022-08-10T12:14:20.364Z,34.58
2022-08-10T12:16:58.472Z,34.83
2022-08-10T12:20:01.109Z,34.95
2022-08-10T12:22:36.396Z,34.87
2022-08-10T12:25:11.490Z,34.91
2022-08-10T12:28:09.739Z,35.49
2022-08-10T12:30:46.531Z,36.17
2022-08-10T12:33:29.221Z,36.67
2022-08-10T12:36:22.373Z,36.33
2022-08-10T12:39:02.454Z,36.10
2022-08-10T12:41:43.573Z,36.21
2022-08-10T12:44:41.307Z,36.81
2022-08-10T12:47:14.278Z,37.30
2022-08-10T12:50:30.709Z,37.82
2022-08-10T12:53:41.303Z,38.19
2022-08-10T12:56:08.862Z,38.86
2022-08-10T12:59:00.151Z,38.49
2022-08-10T13:02:10.642Z,38.72
2022-08-10T13:04:28.765Z,38.42
2022-08-10T13:07:00.973Z,37.98
2022-08-10T13:09:29.258Z,37.50
2022-08-10T13:12:35.974Z,37.28
2022-08-10T13:14:55.202Z,36.57
2022-08-10T13:17:38.721Z,36.08
2022-08-10T13:20:39.069Z,35.57
2022-08-10T13:23:14.835Z,34.87
2022-08-10T13:25:48.277Z,34.87
2022-08-10T13:28:35.894Z,34.70
2022-08-10T13:31:11.367Z,34.91
2022-08-10T13:34:38.785Z,35.22
2022-08-10T13:36:43.029Z,35.32
2022-08-10T13:39:12.897Z,35.18
2022-08-10T13:41:44.257Z,35.27
2022-08-10T13:44:15.346Z,35.32
2022-08-10T13:46:51.390Z,35.42
2022-08-10T13:49:21.816Z,35.30
2022-08-10T13:51:57.131Z,35.40
2022-08-10T13:54:37.310Z,35.69
2022-08-10T13:57:06.035Z,35.72
2022-08-10T14:00:36.477Z,35.59
2022-08-10T14:02:49.131Z,35.35
2022-08-10T14:05:27.159Z,34.94
2022-08-10T14:08:01.130Z,34.92
2022-08-10T14:11:04.073Z,34.88
2022-08-10T14:13:26.734Z,34.75
2022-08-10T14:15:56.732Z,34.77
2022-08-10T14:18:25.824Z,34.63
2022-08-10T14:20:57.497Z,34.54
2022-08-10T14:23:25.054Z,34.42
2022-08-10T14:25:54.088Z,34.39
2022-08-10T14:28:56.298Z,34.29
2022-08-10T14:31:29.153Z,34.12
2022-08-10T14:33:59.587Z,33.84
2022-08-10T14:36:58.589Z,33.75
2022-08-10T14:39:31.317Z,33.63
2022-08-10T14:42:15.777Z,33.46
2022-08-10T14:45:00.202Z,33.36
2022-08-10T14:47:53.745Z,33.28
2022-08-10T14:50:32.239Z,33.21
2022-08-10T14:53:09.444Z,33.07
2022-08-10T14:55:58.895Z,33.09
2022-08-10T14:58:38.679Z,32.94
2022-08-10T15:01:08.624Z,32.92
2022-08-10T15:04:01.608Z,32.83
2022-08-10T15:06:32.107Z,32.83
2022-08-10T15:09:20.245Z,32.76
2022-08-10T15:12:14.079Z,32.76
2022-08-10T15:14:47.027Z,32.80
2022-08-10T15:17:26.437Z,32.78
2022-08-10T15:20:04.711Z,32.72
2022-08-10T15:22:49.848Z,32.69
2022-08-10T15:25:24.310Z,32.63
2022-08-10T15:28:06.389Z,32.58
2022-08-10T15:30:40.553Z,32.54
2022-08-10T15:34:03.820Z,32.48
2022-08-10T15:36:38.933Z,32.41
2022-08-10T15:40:25.089Z,32.22
2022-08-10T15:42:08.955Z,32.24
2022-08-10T15:44:43.311Z,32.07
2022-08-10T15:47:24.658Z,32.11
2022-08-10T15:50:03.203Z,32.01
2022-08-10T15:53:01.837Z,31.92
2022-08-10T15:55:41.744Z,31.87
2022-08-10T15:58:38.889Z,31.79
2022-08-10T16:02:14.098Z,31.64
2022-08-10T16:04:08.716Z,31.64
2022-08-10T16:06:44.836Z,31.53
2022-08-10T16:10:22.009Z,31.51
2022-08-10T16:12:29.707Z,31.45
2022-08-10T16:15:04.427Z,31.35
2022-08-10T16:17:54.778Z,31.25
2022-08-10T16:20:30.281Z,31.23
2022-08-10T16:23:02.959Z,31.20
2022-08-10T16:25:51.696Z,31.09
2022-08-10T16:28:23.647Z,31.09
2022-08-10T16:30:56.983Z,31.03
2022-08-10T16:33:54.322Z,31.01
2022-08-10T16:36:20.844Z,30.91
2022-08-10T16:38:50.659Z,30.78
2022-08-10T16:42:00.387Z,30.78
2022-08-10T16:44:11.397Z,30.65
2022-08-10T16:46:44.771Z,30.62
2022-08-10T16:49:15.541Z,30.54
2022-08-10T16:51:48.349Z,30.37
2022-08-10T16:54:27.568Z,30.34
2022-08-10T16:57:01.935Z,30.30
2022-08-10T16:59:34.236Z,30.24
2022-08-10T17:02:03.332Z,30.15
2022-08-10T17:04:33.523Z,30.15
2022-08-10T17:07:07.476Z,30.15
2022-08-10T17:09:37.778Z,30.02
2022-08-10T17:12:13.445Z,30.07
2022-08-10T17:14:43.628Z,30.06
2022-08-10T17:17:21.810Z,30.00
2022-08-10T17:19:51.018Z,29.97
2022-08-10T17:22:24.224Z,29.88
2022-08-10T17:25:21.157Z,29.88
2022-08-10T17:28:04.911Z,29.86
2022-08-10T17:30:46.173Z,29.78
2022-08-10T17:33:30.803Z,29.72
2022-08-10T17:36:03.668Z,29.81
2022-08-10T17:38:33.918Z,29.63
2022-08-10T17:41:12.431Z,29.63
2022-08-10T17:43:57.822Z,29.59
2022-08-10T17:46:38.718Z,29.67
2022-08-10T17:49:09.012Z,29.51
2022-08-10T17:51:39.611Z,29.49
2022-08-10T17:54:36.299Z,29.54
2022-08-10T17:57:12.546Z,29.50
2022-08-10T17:59:42.905Z,29.42
2022-08-10T18:02:14.947Z,29.30
2022-08-10T18:04:50.437Z,29.31
2022-08-10T18:07:22.299Z,29.23
2022-08-10T18:09:53.162Z,29.15
2022-08-10T18:12:36.291Z,29.09
2022-08-10T18:15:13.271Z,29.15
2022-08-10T18:17:46.335Z,29.11
2022-08-10T18:20:20.003Z,29.10
2022-08-10T18:22:57.651Z,29.08
2022-08-10T18:25:33.082Z,28.97
2022-08-10T18:28:05.002Z,29.01
2022-08-10T18:30:45.104Z,28.89
2022-08-10T18:33:14.546Z,28.90
2022-08-10T18:35:46.488Z,28.87
2022-08-10T18:38:16.712Z,28.82
2022-08-10T18:40:52.576Z,28.79
2022-08-10T18:44:06.915Z,28.69
2022-08-10T18:46:20.249Z,28.71
2022-08-10T18:48:54.940Z,28.68
2022-08-10T18:51:26.991Z,28.55
2022-08-10T18:54:05.301Z,28.54
2022-08-10T18:57:05.327Z,28.54
2022-08-10T18:59:34.144Z,28.43
2022-08-10T19:02:26.223Z,28.37
2022-08-10T19:05:30.552Z,28.38
2022-08-10T19:08:08.299Z,28.26
2022-08-10T19:11:09.216Z,28.11
2022-08-10T19:13:50.667Z,28.14
2022-08-10T19:16:19.474Z,28.05
2022-08-10T19:19:05.477Z,28.10
2022-08-10T19:22:02.279Z,28.08
2022-08-10T19:25:03.021Z,28.07
2022-08-10T19:27:59.438Z,28.02
2022-08-10T19:30:57.547Z,28.01
2022-08-10T19:33:44.289Z,27.96
2022-08-10T19:36:29.774Z,27.95
2022-08-10T19:39:17.952Z,27.98
2022-08-10T19:41:54.499Z,28.01
2022-08-10T19:44:32.019Z,27.98
2022-08-10T19:47:08.580Z,27.94
2022-08-10T19:49:47.384Z,27.81
2022-08-10T19:52:38.748Z,27.75
2022-08-10T19:55:17.726Z,27.71
2022-08-10T19:58:01.350Z,27.73
2022-08-10T20:00:41.177Z,27.64
2022-08-10T20:03:47.353Z,27.61
2022-08-10T20:06:24.170Z,27.61
2022-08-10T20:09:04.018Z,27.69
2022-08-10T20:11:56.843Z,27.60
2022-08-10T20:14:24.292Z,27.57
2022-08-10T20:17:01.432Z,27.61
2022-08-10T20:19:52.434Z,27.64
2022-08-10T20:22:33.869Z,27.57
2022-08-10T20:25:14.388Z,27.55
2022-08-10T20:28:00.922Z,27.62
2022-08-10T20:30:33.585Z,27.60
2022-08-10T20:33:09.876Z,27.63
2022-08-10T20:35:48.661Z,27.57
2022-08-10T20:38:43.556Z,27.62
2022-08-10T20:41:23.363Z,27.58
2022-08-10T20:44:08.988Z,27.55
2022-08-10T20:47:02.233Z,27.45
2022-08-10T20:50:01.352Z,27.46
2022-08-10T20:52:31.578Z,27.52
2022-08-10T20:55:02.637Z,27.49
2022-08-10T20:57:55.721Z,27.46
2022-08-10T21:00:42.684Z,27.43
2022-08-10T21:03:31.362Z,27.47
2022-08-10T21:06:31.699Z,27.46
2022-08-10T21:09:23.544Z,27.43
2022-08-10T21:12:05.993Z,27.38
2022-08-10T21:15:14.485Z,27.37
2022-08-10T21:17:55.031Z,27.38
2022-08-10T21:20:47.362Z,27.28
2022-08-10T21:23:17.967Z,27.24
2022-08-10T21:25:59.314Z,27.27
2022-08-10T21:28:53.057Z,27.14
2022-08-10T21:31:31.337Z,27.16
2022-08-10T21:34:19.447Z,27.16
2022-08-10T21:37:08.305Z,27.07
2022-08-10T21:39:56.412Z,26.92
2022-08-10T21:43:11.217Z,26.88
2022-08-10T21:46:10.796Z,26.87
2022-08-10T21:49:23.323Z,26.83
2022-08-10T21:52:37.292Z,26.77
2022-08-10T21:55:55.943Z,26.71
2022-08-10T21:58:52.201Z,26.63
2022-08-10T22:01:51.443Z,26.48
2022-08-10T22:04:40.142Z,26.40
2022-08-10T22:07:36.679Z,26.43
2022-08-10T22:10:26.268Z,26.41
2022-08-10T22:13:17.879Z,26.48
2022-08-10T22:16:11.987Z,26.54
2022-08-10T22:19:03.417Z,26.59
2022-08-10T22:22:28.291Z,26.69
2022-08-10T22:25:45.425Z,26.72
2022-08-10T22:28:38.548Z,26.75
2022-08-10T22:31:52.007Z,26.72
2022-08-10T22:35:00.196Z,26.66
2022-08-10T22:38:16.651Z,26.66
2022-08-10T22:41:05.555Z,26.65
2022-08-10T22:43:55.167Z,26.60
2022-08-10T22:46:46.334Z,26.37
2022-08-10T22:49:23.630Z,26.37
2022-08-10T22:52:03.496Z,26.44
2022-08-10T22:55:00.191Z,26.37
2022-08-10T22:57:46.213Z,26.45
2022-08-10T23:00:19.527Z,26.20
2022-08-10T23:03:22.664Z,26.24
2022-08-10T23:06:04.191Z,26.16
2022-08-10T23:08:45.499Z,26.06
2022-08-10T23:11:30.177Z,25.95
2022-08-10T23:14:04.207Z,25.99
2022-08-10T23:16:58.794Z,25.99
2022-08-10T23:19:30.092Z,25.88
2022-08-10T23:22:09.163Z,25.77
2022-08-10T23:24:43.229Z,25.90
2022-08-10T23:27:38.424Z,25.95
2022-08-10T23:30:10.856Z,25.87
2022-08-10T23:32:46.664Z,25.77
2022-08-10T23:36:31.339Z,25.86
2022-08-10T23:38:14.381Z,25.93
2022-08-10T23:40:48.219Z,25.98
2022-08-10T23:46:24.159Z,26.00
2022-08-10T23:48:58.508Z,26.04
2022-08-10T23:51:54.976Z,25.98
2022-08-10T23:54:25.834Z,25.91
2022-08-10T23:57:01.008Z,25.96
2022-08-10T23:59:31.886Z,25.99
